createdAt,value
2017-09-07T00:00:27.074Z,69.00
2017-09-07T00:02:56.709Z,69.40
2017-09-07T00:05:25.605Z,69.40
2017-09-07T00:07:54.467Z,69.10
2017-09-07T00:10:23.359Z,69.60
2017-09-07T00:12:52.313Z,69.50
2017-09-07T00:15:21.197Z,69.70
2017-09-07T00:17:50.173Z,70.30
2017-09-07T00:20:20.376Z,70.10
2017-09-07T00:22:49.360Z,70.10
2017-09-07T00:25:18.184Z,69.80
2017-09-07T00:27:47.055Z,70.00
2017-09-07T00:30:16.739Z,70.10
2017-09-07T00:32:45.981Z,70.10
2017-09-07T00:35:14.899Z,69.90
2017-09-07T00:37:43.760Z,70.50
2017-09-07T00:40:12.778Z,70.10
2017-09-07T00:42:41.627Z,70.10
2017-09-07T00:45:10.458Z,70.40
2017-09-07T00:47:39.444Z,70.70
2017-09-07T00:50:08.302Z,70.60
2017-09-07T00:52:37.400Z,70.70
2017-09-07T00:55:06.493Z,70.60
2017-09-07T00:57:35.607Z,70.90
2017-09-07T01:00:04.488Z,70.60
2017-09-07T01:02:34.123Z,70.70
2017-09-07T01:05:03.325Z,70.80
2017-09-07T01:07:32.337Z,71.10
2017-09-07T01:10:01.419Z,71.10
2017-09-07T01:12:30.387Z,71.60
2017-09-07T01:15:00.069Z,71.50
2017-09-07T01:17:29.124Z,71.30
2017-09-07T01:19:58.173Z,71.10
2017-09-07T01:22:27.428Z,71.30
2017-09-07T01:24:56.789Z,71.30
2017-09-07T01:27:26.288Z,71.40
2017-09-07T01:29:55.290Z,71.50
2017-09-07T01:32:25.284Z,71.60
2017-09-07T01:34:55.757Z,72.20
2017-09-07T01:37:28.397Z,72.20
2017-09-07T01:40:00.551Z,71.70
2017-09-07T01:42:31.119Z,71.20
2017-09-07T01:45:00.284Z,71.00
2017-09-07T01:47:29.793Z,71.10
2017-09-07T01:49:59.502Z,71.10
2017-09-07T01:52:29.747Z,71.00
2017-09-07T01:54:58.891Z,71.70
2017-09-07T01:57:28.599Z,70.90
2017-09-07T01:59:57.644Z,71.10
2017-09-07T02:02:27.102Z,70.80
2017-09-07T02:04:55.957Z,71.10
2017-09-07T02:07:26.432Z,71.50
2017-09-07T02:09:56.829Z,71.80
2017-09-07T02:12:27.039Z,72.10
2017-09-07T02:14:58.092Z,72.40
2017-09-07T02:17:27.086Z,72.10
2017-09-07T02:19:56.169Z,72.30
2017-09-07T02:22:25.084Z,72.40
2017-09-07T02:24:54.160Z,71.80
2017-09-07T02:27:23.730Z,71.60
2017-09-07T02:29:52.555Z,72.10
2017-09-07T02:32:21.590Z,72.60
2017-09-07T02:34:50.509Z,72.50
2017-09-07T02:37:19.433Z,72.70
2017-09-07T02:39:49.138Z,72.80
2017-09-07T02:42:18.183Z,72.90
2017-09-07T02:44:47.329Z,72.70
2017-09-07T02:47:16.623Z,73.00
2017-09-07T02:49:46.104Z,73.20
2017-09-07T02:52:15.441Z,73.10
2017-09-07T02:54:44.307Z,73.40
2017-09-07T02:57:13.401Z,73.20
2017-09-07T02:59:42.701Z,73.70
2017-09-07T03:02:11.735Z,74.10
2017-09-07T03:04:40.691Z,74.20
2017-09-07T03:07:09.480Z,74.30
2017-09-07T03:09:38.350Z,73.90
2017-09-07T03:12:07.343Z,74.30
2017-09-07T03:14:36.117Z,73.80
2017-09-07T03:17:05.056Z,74.10
2017-09-07T03:19:34.385Z,74.10
2017-09-07T03:22:03.266Z,74.30
2017-09-07T03:24:33.120Z,74.90
2017-09-07T03:27:03.141Z,74.80
2017-09-07T03:29:34.456Z,75.00
2017-09-07T03:32:05.498Z,74.50
2017-09-07T03:34:36.480Z,74.70
2017-09-07T03:37:06.438Z,74.90
2017-09-07T03:39:36.625Z,74.70
2017-09-07T03:42:05.481Z,75.00
2017-09-07T03:44:34.348Z,75.60
2017-09-07T03:47:03.289Z,75.50
2017-09-07T03:51:24.578Z,75.10
2017-09-07T03:53:53.415Z,75.20
2017-09-07T03:56:23.121Z,74.30
2017-09-07T03:58:52.137Z,74.20
2017-09-07T04:01:21.076Z,74.60
2017-09-07T04:03:50.003Z,75.00
2017-09-07T04:06:18.956Z,74.60
2017-09-07T04:08:47.821Z,74.90
2017-09-07T04:11:16.805Z,75.20
2017-09-07T04:13:45.754Z,75.10
2017-09-07T04:16:14.775Z,75.10
2017-09-07T04:18:43.555Z,75.00
2017-09-07T04:21:12.321Z,75.30
2017-09-07T04:23:41.173Z,75.80
2017-09-07T04:26:09.961Z,75.40
2017-09-07T04:28:38.736Z,75.70
2017-09-07T04:31:07.720Z,75.90
2017-09-07T04:33:36.664Z,75.90
2017-09-07T04:36:05.663Z,75.20
2017-09-07T04:38:35.464Z,76.20
2017-09-07T04:41:05.336Z,76.10
2017-09-07T04:43:34.282Z,76.10
2017-09-07T04:46:03.226Z,76.70
2017-09-07T04:48:32.181Z,76.80
2017-09-07T04:51:00.955Z,77.10
2017-09-07T04:53:29.837Z,77.30
2017-09-07T04:55:58.722Z,76.80
2017-09-07T04:58:28.269Z,77.40
2017-09-07T05:00:57.248Z,77.50
2017-09-07T05:03:26.145Z,76.40
2017-09-07T05:05:55.153Z,76.40
2017-09-07T05:08:24.115Z,76.60
2017-09-07T05:10:53.078Z,76.60
2017-09-07T05:13:22.819Z,76.80
2017-09-07T05:15:51.860Z,76.70
2017-09-07T05:18:20.862Z,76.00
2017-09-07T05:20:49.743Z,76.70
2017-09-07T05:23:18.915Z,76.50
2017-09-07T05:25:48.144Z,77.30
2017-09-07T05:28:17.361Z,77.70
2017-09-07T05:30:47.209Z,78.00
2017-09-07T05:33:16.487Z,78.00
2017-09-07T05:35:45.450Z,77.90
2017-09-07T05:38:14.383Z,78.10
2017-09-07T05:40:43.344Z,77.90
2017-09-07T05:43:13.121Z,78.80
2017-09-07T05:45:42.329Z,78.80
2017-09-07T05:48:11.329Z,79.00
2017-09-07T05:50:40.160Z,78.40
2017-09-07T05:53:08.962Z,78.70
2017-09-07T05:55:37.863Z,79.50
2017-09-07T05:58:06.699Z,78.80
2017-09-07T06:00:36.665Z,78.90
2017-09-07T06:03:06.151Z,78.90
2017-09-07T06:05:35.324Z,78.70
2017-09-07T06:08:04.546Z,78.80
2017-09-07T06:10:33.449Z,78.80
2017-09-07T06:13:02.261Z,78.20
2017-09-07T06:15:31.157Z,78.10
2017-09-07T06:18:00.068Z,78.20
2017-09-07T06:20:29.890Z,78.00
2017-09-07T06:22:58.718Z,78.10
2017-09-07T06:25:27.578Z,77.90
2017-09-07T06:27:56.851Z,77.90
2017-09-07T06:30:25.764Z,77.90
2017-09-07T06:32:54.622Z,77.50
2017-09-07T06:35:24.233Z,78.50
2017-09-07T06:37:53.225Z,78.40
2017-09-07T06:40:22.389Z,78.50
2017-09-07T06:42:51.400Z,78.40
2017-09-07T06:45:20.443Z,78.00
2017-09-07T06:47:49.372Z,78.00
2017-09-07T06:50:18.418Z,77.60
2017-09-07T06:52:47.546Z,77.70
2017-09-07T06:55:16.569Z,77.70
2017-09-07T06:57:46.361Z,77.40
2017-09-07T07:00:15.196Z,77.50
2017-09-07T07:02:44.545Z,77.40
2017-09-07T07:05:13.400Z,77.70
2017-09-07T07:07:42.506Z,77.30
2017-09-07T07:10:11.503Z,77.60
2017-09-07T07:12:40.566Z,77.10
2017-09-07T07:15:09.590Z,77.10
2017-09-07T07:17:38.532Z,76.60
2017-09-07T07:20:07.468Z,76.10
2017-09-07T07:22:36.517Z,75.80
2017-09-07T07:25:05.595Z,76.50
2017-09-07T07:27:35.481Z,75.50
2017-09-07T07:30:04.337Z,75.50
2017-09-07T07:32:33.262Z,75.20
2017-09-07T07:35:04.308Z,74.90
2017-09-07T07:37:33.252Z,75.30
2017-09-07T07:40:02.265Z,74.70
2017-09-07T07:42:31.063Z,74.80
2017-09-07T07:44:59.925Z,74.40
2017-09-07T07:47:28.778Z,74.10
2017-09-07T07:49:58.497Z,74.00
2017-09-07T07:52:27.625Z,74.00
2017-09-07T07:54:58.560Z,73.90
2017-09-07T07:57:27.821Z,74.30
2017-09-07T07:59:57.629Z,73.20
2017-09-07T08:02:27.302Z,73.70
2017-09-07T08:04:56.083Z,73.70
2017-09-07T08:07:24.878Z,73.00
2017-09-07T08:09:53.849Z,73.40
2017-09-07T08:12:22.863Z,73.20
2017-09-07T08:14:51.969Z,72.50
2017-09-07T08:17:20.917Z,72.20
2017-09-07T08:19:50.105Z,72.20
2017-09-07T08:22:18.926Z,72.70
2017-09-07T08:24:48.155Z,72.50
2017-09-07T08:27:17.830Z,71.90
2017-09-07T08:29:46.733Z,71.80
2017-09-07T08:32:15.587Z,71.70
2017-09-07T08:34:44.391Z,71.40
2017-09-07T08:37:13.196Z,70.70
2017-09-07T08:39:42.163Z,71.00
2017-09-07T08:42:11.606Z,70.30
2017-09-07T08:44:41.341Z,70.60
2017-09-07T08:47:10.306Z,70.60
2017-09-07T08:49:40.582Z,71.30
2017-09-07T08:52:09.579Z,71.30
2017-09-07T08:54:39.082Z,71.40
2017-09-07T08:57:08.957Z,71.90
2017-09-07T08:59:38.025Z,71.90
2017-09-07T09:02:07.913Z,70.30
2017-09-07T09:04:36.976Z,70.10
2017-09-07T09:07:06.160Z,70.40
2017-09-07T09:09:35.640Z,71.40
2017-09-07T09:12:05.418Z,68.60
2017-09-07T09:14:34.368Z,68.50
2017-09-07T09:17:03.184Z,69.30
2017-09-07T09:19:32.035Z,68.70
2017-09-07T09:22:00.918Z,67.10
2017-09-07T09:24:30.004Z,67.90
2017-09-07T09:26:59.044Z,66.80
2017-09-07T09:29:28.021Z,66.20
2017-09-07T09:31:56.975Z,65.40
2017-09-07T09:34:26.033Z,64.70
2017-09-07T09:36:55.085Z,62.70
2017-09-07T09:39:24.171Z,61.80
2017-09-07T09:41:53.173Z,61.20
2017-09-07T09:44:22.224Z,60.60
2017-09-07T09:46:52.016Z,60.60
2017-09-07T09:49:21.010Z,60.50
2017-09-07T09:51:50.034Z,60.00
2017-09-07T09:54:19.816Z,61.50
2017-09-07T09:56:48.750Z,61.40
2017-09-07T09:59:17.840Z,60.80
2017-09-07T10:01:46.910Z,61.50
2017-09-07T10:04:16.905Z,61.90
2017-09-07T10:06:46.016Z,61.90
2017-09-07T10:09:15.617Z,61.10
2017-09-07T10:11:44.815Z,61.00
2017-09-07T10:14:13.839Z,60.40
2017-09-07T10:16:42.973Z,58.90
2017-09-07T10:19:12.142Z,57.90
2017-09-07T10:21:41.183Z,57.30
2017-09-07T10:24:10.107Z,55.80
2017-09-07T10:26:40.585Z,56.10
2017-09-07T10:29:09.746Z,56.00
2017-09-07T10:31:38.991Z,55.90
2017-09-07T10:34:09.044Z,56.30
2017-09-07T10:36:38.058Z,56.30
2017-09-07T10:39:07.338Z,56.70
2017-09-07T10:41:36.247Z,55.90
2017-09-07T10:44:05.156Z,56.10
2017-09-07T10:46:34.166Z,54.90
2017-09-07T10:49:03.421Z,54.50
2017-09-07T10:51:32.874Z,54.80
2017-09-07T10:54:02.683Z,52.50
2017-09-07T10:56:31.548Z,52.50
2017-09-07T10:59:00.307Z,51.50
2017-09-07T11:01:29.018Z,51.60
2017-09-07T11:03:58.170Z,50.60
2017-09-07T11:06:27.214Z,49.50
2017-09-07T11:08:56.553Z,49.30
2017-09-07T11:11:25.852Z,49.30
2017-09-07T11:13:55.631Z,49.90
2017-09-07T11:16:24.607Z,49.90
2017-09-07T11:18:53.660Z,48.30
2017-09-07T11:21:22.697Z,47.70
2017-09-07T11:23:52.039Z,47.20
2017-09-07T11:26:21.793Z,47.80
2017-09-07T11:28:50.750Z,47.70
2017-09-07T11:31:20.561Z,47.10
2017-09-07T11:33:50.371Z,47.20
2017-09-07T11:36:20.082Z,47.90
2017-09-07T11:38:49.870Z,49.00
2017-09-07T11:41:19.142Z,49.00
2017-09-07T11:43:48.189Z,50.20
2017-09-07T11:46:17.103Z,50.30
2017-09-07T11:48:45.916Z,49.60
2017-09-07T11:51:14.752Z,49.50
2017-09-07T11:53:44.632Z,48.00
2017-09-07T11:56:13.526Z,48.00
2017-09-07T11:58:42.357Z,49.60
2017-09-07T12:01:11.151Z,49.10
2017-09-07T12:03:39.981Z,47.80
2017-09-07T12:06:09.044Z,47.40
2017-09-07T12:08:38.080Z,47.30
2017-09-07T12:11:07.115Z,48.60
2017-09-07T12:13:36.160Z,49.00
2017-09-07T12:16:04.959Z,46.60
2017-09-07T12:18:33.770Z,47.90
2017-09-07T12:21:02.697Z,47.40
2017-09-07T12:23:31.709Z,46.50
2017-09-07T12:26:00.744Z,46.40
2017-09-07T12:28:29.807Z,47.30
2017-09-07T12:30:58.822Z,46.10
2017-09-07T12:33:28.605Z,46.70
2017-09-07T12:35:57.890Z,46.70
2017-09-07T12:38:26.722Z,45.90
2017-09-07T12:40:56.330Z,45.90
2017-09-07T12:43:25.225Z,45.90
2017-09-07T12:45:54.410Z,47.40
2017-09-07T12:48:24.198Z,46.50
2017-09-07T12:50:53.211Z,46.50
2017-09-07T12:53:24.046Z,48.70
2017-09-07T12:55:53.624Z,48.70
2017-09-07T12:58:22.677Z,49.20
2017-09-07T13:00:51.535Z,49.20
2017-09-07T13:03:21.535Z,48.00
2017-09-07T13:05:50.591Z,47.40
2017-09-07T13:08:19.668Z,46.40
2017-09-07T13:10:48.540Z,45.90
2017-09-07T13:13:17.386Z,46.80
2017-09-07T13:15:49.469Z,46.40
2017-09-07T13:18:18.354Z,46.60
2017-09-07T13:20:47.583Z,46.10
2017-09-07T13:23:16.676Z,45.60
2017-09-07T13:25:45.704Z,43.60
2017-09-07T13:28:14.727Z,42.70
2017-09-07T13:30:43.774Z,42.60
2017-09-07T13:33:12.673Z,42.70
2017-09-07T13:35:42.223Z,43.40
2017-09-07T13:38:11.331Z,44.20
2017-09-07T13:40:40.380Z,46.00
2017-09-07T13:43:10.463Z,46.50
2017-09-07T13:45:39.439Z,47.20
2017-09-07T13:48:08.781Z,47.30
2017-09-07T13:50:37.671Z,46.00
2017-09-07T13:53:06.672Z,46.90
2017-09-07T13:55:35.634Z,46.00
2017-09-07T13:58:05.041Z,44.70
2017-09-07T14:00:34.053Z,44.90
2017-09-07T14:03:03.228Z,44.50
2017-09-07T14:05:32.210Z,44.80
2017-09-07T14:08:01.887Z,45.90
2017-09-07T14:10:31.842Z,46.30
2017-09-07T14:13:00.806Z,46.20
2017-09-07T14:18:09.396Z,47.80
2017-09-07T14:20:39.008Z,47.80
2017-09-07T14:23:08.154Z,48.90
2017-09-07T14:25:37.168Z,49.90
2017-09-07T14:28:08.511Z,50.10
2017-09-07T14:30:37.549Z,50.00
2017-09-07T14:33:06.449Z,50.00
2017-09-07T14:35:35.531Z,49.20
2017-09-07T14:38:04.769Z,48.90
2017-09-07T14:40:33.766Z,49.30
2017-09-07T14:43:02.817Z,49.40
2017-09-07T14:45:31.989Z,49.20
2017-09-07T14:48:01.321Z,49.90
2017-09-07T14:50:31.083Z,51.40
2017-09-07T14:53:00.002Z,51.30
2017-09-07T14:55:28.842Z,51.60
2017-09-07T14:57:57.746Z,52.80
2017-09-07T15:00:26.554Z,53.30
2017-09-07T15:02:55.674Z,54.20
2017-09-07T15:05:24.745Z,54.20
2017-09-07T15:07:53.735Z,53.70
2017-09-07T15:10:23.602Z,54.90
2017-09-07T15:12:52.553Z,54.80
2017-09-07T15:15:22.016Z,55.70
2017-09-07T15:17:53.466Z,55.70
2017-09-07T15:20:25.834Z,55.80
2017-09-07T15:25:37.675Z,58.00
2017-09-07T15:28:06.961Z,57.90
2017-09-07T15:30:36.016Z,58.20
2017-09-07T15:33:05.160Z,58.80
2017-09-07T15:35:34.231Z,59.90
2017-09-07T15:38:03.265Z,60.90
2017-09-07T15:40:33.158Z,60.10
2017-09-07T15:43:02.077Z,59.70
2017-09-07T15:45:31.509Z,60.00
2017-09-07T15:48:00.494Z,58.10
2017-09-07T15:50:29.858Z,58.90
2017-09-07T15:53:00.140Z,59.00
2017-09-07T15:55:37.397Z,58.30
2017-09-07T15:58:06.886Z,58.30
2017-09-07T16:00:36.853Z,58.50
2017-09-07T16:03:06.457Z,58.50
2017-09-07T16:05:35.737Z,58.20
2017-09-07T16:08:05.092Z,57.80
2017-09-07T16:10:34.135Z,58.30
2017-09-07T16:13:03.129Z,58.50
2017-09-07T16:15:32.474Z,58.00
2017-09-07T16:18:02.629Z,58.80
2017-09-07T16:20:31.472Z,59.00
2017-09-07T16:23:00.352Z,58.20
2017-09-07T16:25:29.389Z,57.20
2017-09-07T16:28:00.338Z,56.90
2017-09-07T16:30:29.364Z,56.90
2017-09-07T16:32:58.355Z,57.20
2017-09-07T16:35:27.166Z,57.20
2017-09-07T16:37:56.651Z,57.70
2017-09-07T16:40:25.543Z,58.20
2017-09-07T16:42:55.072Z,58.60
2017-09-07T16:45:23.989Z,59.20
2017-09-07T16:47:53.601Z,59.60
2017-09-07T16:50:22.862Z,59.60
2017-09-07T16:52:51.919Z,59.20
2017-09-07T16:55:20.990Z,59.40
2017-09-07T16:57:50.293Z,58.80
2017-09-07T17:00:19.154Z,58.50
2017-09-07T17:02:49.370Z,58.20
2017-09-07T17:05:18.159Z,58.20
2017-09-07T17:07:47.853Z,58.30
2017-09-07T17:10:17.356Z,59.20
2017-09-07T17:12:46.448Z,60.00
2017-09-07T17:15:15.641Z,59.20
2017-09-07T17:17:46.635Z,59.10
2017-09-07T17:20:15.713Z,59.40
2017-09-07T17:22:44.871Z,59.10
2017-09-07T17:25:14.517Z,59.60
2017-09-07T17:27:45.515Z,59.90
2017-09-07T17:30:14.685Z,59.80
2017-09-07T17:32:43.793Z,59.40
2017-09-07T17:35:12.720Z,58.80
2017-09-07T17:37:42.588Z,58.70
2017-09-07T17:40:11.547Z,58.70
2017-09-07T17:42:41.363Z,59.40
2017-09-07T17:45:10.380Z,59.50
2017-09-07T17:47:39.377Z,59.20
2017-09-07T17:50:08.814Z,59.40
2017-09-07T17:52:39.159Z,60.00
2017-09-07T17:57:47.292Z,60.70
2017-09-07T18:00:17.197Z,60.80
2017-09-07T18:02:47.323Z,61.00
2017-09-07T18:05:17.329Z,60.70
2017-09-07T18:07:46.522Z,60.60
2017-09-07T18:10:16.738Z,60.50
2017-09-07T18:12:46.933Z,62.20
2017-09-07T18:15:16.490Z,62.20
2017-09-07T18:17:45.707Z,63.20
2017-09-07T18:20:14.780Z,63.70
2017-09-07T18:22:44.361Z,63.70
2017-09-07T18:25:14.188Z,64.10
2017-09-07T18:27:43.126Z,63.70
2017-09-07T18:30:11.953Z,63.90
2017-09-07T18:32:40.885Z,63.10
2017-09-07T18:35:10.150Z,63.10
2017-09-07T18:37:39.009Z,63.40
2017-09-07T18:40:08.181Z,63.60
2017-09-07T18:42:51.825Z,63.80
2017-09-07T18:45:20.976Z,63.80
2017-09-07T18:47:50.053Z,64.10
2017-09-07T18:50:19.844Z,64.30
2017-09-07T18:52:49.201Z,64.30
2017-09-07T18:55:18.236Z,64.50
2017-09-07T18:57:48.775Z,64.60
2017-09-07T19:00:17.633Z,64.60
2017-09-07T19:02:46.558Z,64.70
2017-09-07T19:05:16.662Z,65.70
2017-09-07T19:07:45.572Z,65.70
2017-09-07T19:10:14.614Z,66.30
2017-09-07T19:12:43.911Z,66.30
2017-09-07T19:15:13.742Z,66.10
2017-09-07T19:17:43.097Z,66.70
2017-09-07T19:20:12.462Z,67.10
2017-09-07T19:22:42.602Z,67.60
2017-09-07T19:25:12.458Z,67.70
2017-09-07T19:27:41.866Z,68.10
2017-09-07T19:30:10.984Z,68.40
2017-09-07T19:32:39.906Z,69.20
2017-09-07T19:35:09.003Z,69.30
2017-09-07T19:37:38.788Z,69.60
2017-09-07T19:40:07.841Z,70.30
2017-09-07T19:42:39.784Z,70.40
2017-09-07T19:45:09.062Z,70.70
2017-09-07T19:47:38.930Z,70.80
2017-09-07T19:50:07.950Z,70.70
2017-09-07T19:52:37.585Z,71.10
2017-09-07T19:55:06.781Z,71.10
2017-09-07T19:57:35.720Z,71.50
2017-09-07T20:00:04.812Z,71.10
2017-09-07T20:02:33.874Z,71.00
2017-09-07T20:05:03.042Z,71.10
2017-09-07T20:07:32.844Z,71.00
2017-09-07T20:10:02.323Z,71.10
2017-09-07T20:12:32.668Z,70.80
2017-09-07T20:15:02.631Z,70.90
2017-09-07T20:17:31.973Z,71.00
2017-09-07T20:20:03.118Z,71.10
2017-09-07T20:22:33.037Z,70.70
2017-09-07T20:25:02.017Z,70.70
2017-09-07T20:27:31.066Z,71.10
2017-09-07T20:30:00.202Z,71.10
2017-09-07T20:32:29.891Z,71.90
2017-09-07T20:34:58.833Z,71.90
2017-09-07T20:37:28.204Z,71.80
2017-09-07T20:39:58.113Z,72.10
2017-09-07T20:42:29.250Z,71.90
2017-09-07T20:44:58.883Z,71.90
2017-09-07T20:47:31.891Z,71.50
2017-09-07T20:50:01.148Z,71.70
2017-09-07T20:52:30.853Z,72.20
2017-09-07T20:55:00.202Z,72.10
2017-09-07T20:57:29.370Z,72.20
2017-09-07T20:59:59.133Z,72.00
2017-09-07T21:02:28.390Z,72.00
2017-09-07T21:04:57.479Z,72.00
2017-09-07T21:07:26.521Z,71.90
2017-09-07T21:09:55.517Z,72.10
2017-09-07T21:12:24.544Z,72.00
2017-09-07T21:14:54.571Z,71.40
2017-09-07T21:17:24.074Z,71.40
2017-09-07T21:19:53.689Z,71.50
2017-09-07T21:22:22.898Z,71.40
2017-09-07T21:24:51.989Z,71.20
2017-09-07T21:27:21.117Z,70.70
2017-09-07T21:29:50.261Z,70.90
2017-09-07T21:32:19.716Z,71.40
2017-09-07T21:34:48.814Z,71.00
2017-09-07T21:37:17.839Z,71.30
2017-09-07T21:39:47.674Z,71.50
2017-09-07T21:42:16.795Z,71.50
2017-09-07T21:44:46.333Z,71.10
2017-09-07T21:47:15.754Z,71.10
2017-09-07T21:49:45.320Z,71.50
2017-09-07T21:52:14.179Z,71.10
2017-09-07T21:54:43.245Z,71.80
2017-09-07T21:57:12.913Z,71.10
2017-09-07T21:59:41.914Z,71.10
2017-09-07T22:02:11.393Z,71.30
2017-09-07T22:04:40.453Z,71.10
2017-09-07T22:07:09.284Z,71.10
2017-09-07T22:09:38.076Z,70.50
2017-09-07T22:12:07.002Z,70.70
2017-09-07T22:14:37.198Z,70.90
2017-09-07T22:17:06.056Z,70.90
2017-09-07T22:19:35.433Z,70.90
2017-09-07T22:22:04.618Z,71.40
2017-09-07T22:24:33.865Z,71.10
2017-09-07T22:27:03.308Z,71.00
2017-09-07T22:29:33.549Z,70.80
2017-09-07T22:32:03.033Z,70.70
2017-09-07T22:34:32.674Z,70.70
2017-09-07T22:37:01.699Z,71.30
2017-09-07T22:39:30.933Z,70.90
2017-09-07T22:42:00.293Z,71.20
2017-09-07T22:44:30.037Z,71.00
2017-09-07T22:46:59.218Z,70.70
2017-09-07T22:49:29.301Z,70.60
2017-09-07T22:51:58.371Z,70.50
2017-09-07T22:54:27.296Z,70.50
2017-09-07T22:56:56.869Z,70.40
2017-09-07T22:59:25.870Z,69.70
2017-09-07T23:01:54.889Z,70.10
2017-09-07T23:04:23.963Z,70.10
2017-09-07T23:08:42.991Z,69.70
2017-09-07T23:11:12.157Z,69.80
2017-09-07T23:13:41.990Z,69.60
2017-09-07T23:16:11.357Z,69.50
2017-09-07T23:18:40.140Z,69.70
2017-09-07T23:21:08.988Z,69.40
2017-09-07T23:23:38.026Z,69.40
2017-09-07T23:26:07.396Z,69.40
2017-09-07T23:28:36.672Z,69.60
2017-09-07T23:31:05.878Z,69.00
2017-09-07T23:33:35.778Z,69.40
2017-09-07T23:36:05.016Z,69.30
2017-09-07T23:38:34.105Z,69.40
2017-09-07T23:42:05.873Z,69.10
2017-09-07T23:44:35.268Z,69.30
2017-09-07T23:47:04.480Z,69.60
2017-09-07T23:49:35.016Z,70.00
2017-09-07T23:52:06.310Z,69.30
2017-09-07T23:54:38.733Z,69.30
2017-09-07T23:57:09.817Z,69.40
2017-09-07T23:59:40.436Z,69.50
